• Join FlightAware (Why Join?)
  • Login
  • US Flag 
Gobble Gobble! 
12:42AM EST


 

Airport Tracker/Info


-or-


 

Live Flight TrackerFlight Track Log ✈ SWA2147 ✈ 02-May-2013 ✈ KPHX - KMDW

Flight Track Log - Related Links

Times and Time Zones

All times are in EDT time to prevent confusion due to time zone crossing. See the SWA2147 flight status page for this flight to view local times or setup timezone preferences in your user account.

Time Position Orientation Groundspeed Altitude Reporting Facility
EDT Latitude Longitude Course Direction KTS MPH feet Rate Location/Type
05:52PM 33.4333 -111.9833 90° East 166 191 2,000  Level Phoenix TRACON
05:53PM 33.4333 -111.9333 90° East 192 221 3,600 1,620 Climbing Phoenix TRACON
05:54PM 33.4306 -111.8864 94° East 212 244 4,700 2,340 Climbing Albuquerque Center
05:55PM 33.4667 -111.7936 65° Northeast 263 303 7,800 2,760 Climbing Albuquerque Center
05:56PM 33.5092 -111.7178 56° Northeast 276 318 10,500 1,980 Climbing Albuquerque Center
05:57PM 33.5544 -111.6258 59° Northeast 327 376 11,900 1,920 Climbing Albuquerque Center
05:58PM 33.5944 -111.5206 65° Northeast 349 402 14,500 2,280 Climbing Albuquerque Center
05:59PM 33.6358 -111.4083 66° East 367 422 16,600 2,040 Climbing Albuquerque Center
06:00PM 33.6794 -111.2911 66° East 386 444 18,800 2,220 Climbing Albuquerque Center
06:01PM 33.7331 -111.1444 66° East 403 464 21,200 2,040 Climbing Albuquerque Center
06:02PM 33.7767 -111.0169 68° East 413 475 23,100 1,620 Climbing Albuquerque Center
06:03PM 33.8231 -110.8856 67° East 425 489 24,600 1,320 Climbing Albuquerque Center
06:04PM 33.8714 -110.7486 67° East 439 505 25,900 1,260 Climbing Albuquerque Center
06:05PM 33.9222 -110.6064 67° East 456 525 27,300 1,260 Climbing Albuquerque Center
06:06PM 33.9731 -110.4633 67° East 464 534 28,600 1,320 Climbing Albuquerque Center
06:07PM 34.0319 -110.2928 67° East 473 544 30,100 1,260 Climbing Albuquerque Center
06:08PM 34.0842 -110.1436 67° East 482 555 31,300 1,200 Climbing Albuquerque Center
06:09PM 34.1361 -109.9925 67° East 482 555 32,600 1,200 Climbing Albuquerque Center
06:10PM 34.1925 -109.8269 68° East 479 551 33,900 1,020 Climbing Albuquerque Center
06:11PM 34.2425 -109.6850 67° East 479 551 34,800 480 Climbing Albuquerque Center
06:12PM 34.2981 -109.5183 68° East 480 552 35,000 60 Climbing Albuquerque Center
06:13PM 34.3472 -109.3750 67° East 481 554 35,000  Level Albuquerque Center
06:14PM 34.4031 -109.2092 68° East 479 551 35,000  Level Albuquerque Center
06:15PM 34.4478 -109.0619 70° East 482 555 35,000  Level Albuquerque Center
06:16PM 34.4889 -108.9139 71° East 484 557 35,000  Level Albuquerque Center
06:17PM 34.5361 -108.7422 71° East 483 556 35,000  Level Albuquerque Center
06:18PM 34.5764 -108.5956 72° East 482 555 35,000  Level Albuquerque Center
06:20PM 34.6203 -108.4275 72° East 481 554 35,000  Level Albuquerque Center
06:21PM 34.6614 -108.2764 72° East 476 548 35,000  Level Albuquerque Center
06:22PM 34.7025 -108.1242 72° East 475 547 35,000  Level Albuquerque Center
06:23PM 34.7436 -107.9708 72° East 476 548 35,000  Level Albuquerque Center
06:24PM 34.7842 -107.8186 72° East 474 545 35,000  Level Albuquerque Center
06:25PM 34.8322 -107.6361 72° East 475 547 35,000  Level Albuquerque Center
06:26PM 34.8725 -107.4836 72° East 473 544 35,000  Level Albuquerque Center
06:27PM 34.9119 -107.3306 73° East 474 545 35,000  Level Albuquerque Center
06:28PM 34.9572 -107.1569 72° East 478 550 35,000  Level Albuquerque Center
06:29PM 34.9953 -107.0094 72° East 477 549 35,000  Level Albuquerque Center
06:30PM 35.0319 -106.8625 73° East 475 547 35,000  Level Albuquerque Center
06:31PM 35.0858 -106.7014 68° East 463 533 35,000  Level Albuquerque Center
06:32PM 35.1400 -106.5614 65° Northeast 473 544 35,000  Level Albuquerque Center
06:33PM 35.1925 -106.4158 66° East 472 543 35,000  Level Albuquerque Center
06:34PM 35.2467 -106.2717 65° Northeast 469 540 35,000  Level Albuquerque Center
06:35PM 35.3075 -106.1039 66° East 461 531 35,000  Level Albuquerque Center
06:36PM 35.3608 -105.9556 66° East 470 541 35,000  Level Albuquerque Center
06:37PM 35.4194 -105.8058 64° Northeast 482 555 35,000  Level Albuquerque Center
06:38PM 35.4728 -105.6536 67° East 480 552 35,000  Level Albuquerque Center
06:39PM 35.5264 -105.5014 67° East 479 551 35,000  Level Albuquerque Center
06:40PM 35.5794 -105.3492 67° East 479 551 35,000  Level Albuquerque Center
06:41PM 35.6436 -105.1703 66° East 484 557 35,000  Level Albuquerque Center
06:42PM 35.7131 -105.0328 58° Northeast 466 536 35,000  Level Albuquerque Center
06:43PM 35.7872 -104.8978 56° Northeast 467 537 35,000  Level Albuquerque Center
06:44PM 35.8589 -104.7633 57° Northeast 465 535 35,000  Level Albuquerque Center
06:45PM 35.9325 -104.6272 56° Northeast 468 539 35,000  Level Albuquerque Center
06:46PM 36.0044 -104.4936 56° Northeast 464 534 35,000  Level Albuquerque Center
06:47PM 36.0769 -104.3581 56° Northeast 465 535 35,000  Level Albuquerque Center
06:48PM 36.1506 -104.2206 56° Northeast 470 541 35,000  Level Albuquerque Center
06:49PM 36.2244 -104.0844 56° Northeast 471 542 35,000  Level Albuquerque Center
06:50PM 36.2950 -103.9508 57° Northeast 463 533 35,000  Level Albuquerque Center
06:51PM 36.3672 -103.8172 56° Northeast 461 531 35,000  Level Albuquerque Center
06:52PM 36.4383 -103.6819 57° Northeast 462 532 35,000  Level Albuquerque Center
06:53PM 36.5211 -103.5239 57° Northeast 462 532 35,000  Level Albuquerque Center
06:55PM 36.5900 -103.3869 58° Northeast 463 533 35,000  Level Albuquerque Center
06:56PM 36.6569 -103.2578 57° Northeast 464 534 35,000  Level Albuquerque Center
06:57PM 36.7350 -103.1086 57° Northeast 462 532 35,000  Level Albuquerque Center
06:58PM 36.8011 -102.9806 57° Northeast 461 531 35,000  Level Albuquerque Center
06:59PM 36.8664 -102.8517 58° Northeast 461 531 35,000  Level Albuquerque Center
07:00PM 36.9456 -102.6997 57° Northeast 467 537 35,000  Level Albuquerque Center
07:01PM 37.0111 -102.5700 58° Northeast 463 533 35,000  Level Albuquerque Center
07:02PM 37.0819 -102.4297 58° Northeast 460 529 35,000  Level Albuquerque Center
07:03PM 37.1522 -102.2897 58° Northeast 459 528 35,000  Level Albuquerque Center
07:04PM 37.2228 -102.1492 58° Northeast 458 527 35,000  Level Albuquerque Center
07:05PM 37.2883 -102.0194 58° Northeast 459 528 35,000  Level Albuquerque Center
07:06PM 37.3600 -101.8678 59° Northeast 455 524 35,000  Level Kansas City Center
07:07PM 37.4344 -101.7183 58° Northeast 452 520 35,000  Level Kansas City Center
07:08PM 37.4989 -101.5886 58° Northeast 456 525 35,000  Level Kansas City Center
07:09PM 37.5753 -101.4342 58° Northeast 462 532 35,000  Level Kansas City Center
07:10PM 37.6394 -101.3008 59° Northeast 463 533 35,000  Level Kansas City Center
07:11PM 37.7056 -101.1672 58° Northeast 466 536 35,000  Level Kansas City Center
07:12PM 37.7828 -101.0067 59° Northeast 470 541 35,000  Level Kansas City Center
07:13PM 37.8506 -100.8681 58° Northeast 474 545 35,000  Level Kansas City Center
07:14PM 37.9167 -100.7278 59° Northeast 479 551 35,000  Level Kansas City Center
07:15PM 37.9769 -100.5525 66° East 484 557 35,000  Level Kansas City Center
07:16PM 38.0278 -100.4019 67° East 484 557 35,000  Level Kansas City Center
07:17PM 38.0875 -100.2242 67° East 488 562 35,000  Level Kansas City Center
07:18PM 38.1364 -100.0733 68° East 484 557 35,000  Level Kansas City Center
07:19PM 38.1956 -99.8950 67° East 487 560 35,000  Level Kansas City Center
07:20PM 38.2461 -99.7436 67° East 486 559 35,000  Level Kansas City Center
07:21PM 38.3053 -99.5658 67° East 489 563 35,000  Level Kansas City Center
07:22PM 38.3561 -99.4067 68° East 490 564 35,000  Level Kansas City Center
07:23PM 38.4092 -99.2458 67° East 491 565 35,000  Level Kansas City Center
07:24PM 38.4625 -99.0844 67° East 492 566 35,000  Level Kansas City Center
07:25PM 38.5136 -98.9222 68° East 492 566 35,000  Level Kansas City Center
07:26PM 38.5689 -98.7586 67° East 499 574 35,000  Level Kansas City Center
07:28PM 38.6206 -98.5972 68° East 490 564 35,000  Level Kansas City Center
07:29PM 38.6703 -98.4358 68° East 487 560 35,000  Level Kansas City Center
07:30PM 38.7319 -98.2431 68° East 485 558 35,000  Level Kansas City Center
07:31PM 38.7819 -98.0844 68° East 480 552 35,000  Level Kansas City Center
07:32PM 38.8314 -97.9261 68° East 477 549 35,000  Level Kansas City Center
07:33PM 38.8781 -97.7742 68° East 474 545 35,000  Level Kansas City Center
07:34PM 38.9311 -97.5972 69° East 475 547 35,000  Level Kansas City Center
07:35PM 38.9739 -97.4400 71° East 485 558 35,000  Level Kansas City Center
07:36PM 39.0217 -97.2592 71° East 479 551 35,000  Level Kansas City Center
07:37PM 39.0625 -97.1039 71° East 477 549 35,000  Level Kansas City Center
07:38PM 39.1086 -96.9206 72° East 482 555 35,000  Level Kansas City Center
07:39PM 39.1514 -96.7633 71° East 483 556 35,000  Level Kansas City Center
07:40PM 39.1906 -96.6022 73° East 490 564 35,000  Level Kansas City Center
07:41PM 39.2378 -96.4178 72° East 485 558 35,000  Level Kansas City Center
07:42PM 39.2786 -96.2597 71° East 488 562 35,000  Level Kansas City Center
07:43PM 39.3244 -96.0728 72° East 484 557 35,000  Level Kansas City Center
07:44PM 39.3647 -95.9133 72° East 486 559 35,000  Level Kansas City Center
07:45PM 39.4103 -95.7264 72° East 488 562 35,000  Level Kansas City Center
07:46PM 39.4503 -95.5650 72° East 488 562 35,000  Level Kansas City Center
07:47PM 39.4961 -95.3783 72° East 490 564 35,000  Level Kansas City Center
07:48PM 39.5364 -95.2114 73° East 485 558 35,000  Level Kansas City Center
07:49PM 39.5742 -95.0547 73° East 482 555 35,000  Level Kansas City Center
07:50PM 39.6117 -94.8950 73° East 481 554 35,000  Level Kansas City Center
07:51PM 39.6558 -94.7106 73° East 478 550 35,000  Level Kansas City Center
07:52PM 39.6933 -94.5533 73° East 476 548 35,000  Level Kansas City Center
07:53PM 39.7356 -94.3706 73° East 474 545 35,000  Level Kansas City Center
07:54PM 39.7722 -94.2147 73° East 471 542 35,000  Level Kansas City Center
07:55PM 39.8131 -94.0369 73° East 476 548 35,000  Level Kansas City Center
07:56PM 39.8492 -93.8728 74° East 476 548 35,000  Level Kansas City Center
07:57PM 39.8858 -93.7106 74° East 470 541 35,000  Level Kansas City Center
07:58PM 39.9261 -93.5481 72° East 474 545 35,000  Level Kansas City Center
07:59PM 39.9608 -93.3844 74° East 474 545 35,000  Level Kansas City Center
08:00PM 40.0033 -93.1886 74° East 472 543 35,000  Level Kansas City Center
08:02PM 40.0403 -93.0264 73° East 471 542 35,000 -360 Level Kansas City Center
08:03PM 40.0786 -92.8492 74° East 473 544 34,300 -840 Descending Kansas City Center
08:04PM 40.1119 -92.6917 74° East 470 541 33,300 -1,020 Descending Kansas City Center
08:05PM 40.1500 -92.5092 75° East 465 535 32,200 -1,020 Descending Kansas City Center
08:06PM 40.1844 -92.3567 73° East 456 525 31,200 -600 Descending Kansas City Center
08:07PM 40.2164 -92.1958 75° East 459 528 31,000 -120 Descending Kansas City Center
08:08PM 40.2481 -92.0361 75° East 459 528 31,000  Level Kansas City Center
08:09PM 40.2808 -91.8772 75° East 458 527 31,000  Level Kansas City Center
08:10PM 40.3183 -91.6858 76° East 456 525 31,000  Level Kansas City Center
08:11PM 40.3506 -91.5253 75° East 458 527 31,000  Level Kansas City Center
08:12PM 40.3811 -91.3661 76° East 456 525 31,000  Level Kansas City Center
08:13PM 40.4119 -91.2039 76° East 457 526 31,000  Level Kansas City Center
08:14PM 40.4450 -91.0397 75° East 462 532 31,000  Level Kansas City Center
08:15PM 40.4775 -90.8792 75° East 458 527 31,000 -360 Level Chicago Center
08:16PM 40.5089 -90.7197 75° East 451 519 30,300 -1,020 Descending Chicago Center
08:17PM 40.5431 -90.5339 76° East 436 502 29,000 -1,080 Descending Chicago Center
08:18PM 40.5725 -90.3781 76° East 440 506 28,100 -960 Descending Chicago Center
08:19PM 40.6008 -90.2214 77° East 439 505 27,100 -960 Descending Chicago Center
08:20PM 40.6267 -90.0708 77° East 428 493 26,100 -1,020 Descending Chicago Center
08:21PM 40.6531 -89.9217 77° East 423 487 25,100 -1,380 Descending Chicago Center
08:22PM 40.6903 -89.7483 74° East 414 476 23,300 -1,800 Descending Chicago Center
08:23PM 40.7542 -89.6217 56° Northeast 411 473 21,400 -1,740 Descending Chicago Center
08:24PM 40.8044 -89.5056 60° Northeast 401 461 19,800 -1,680 Descending Chicago Center
08:25PM 40.8581 -89.3806 60° Northeast 394 453 18,000 -1,380 Descending Chicago Center
08:26PM 40.9189 -89.2364 61° Northeast 378 435 17,000 -1,020 Descending Chicago Center
08:27PM 40.9561 -89.1164 68° East 358 412 16,000 -1,020 Descending Chicago Center
08:28PM 41.0108 -89.0000 58° Northeast 352 405 15,000 -1,260 Descending Chicago Center
08:29PM 41.0367 -88.8819 74° East 341 392 13,400 -1,800 Descending Chicago Center
08:30PM 41.0606 -88.7664 75° East 328 377 11,400 -1,680 Descending Chicago Center
08:31PM 41.0875 -88.6567 72° East 318 366 10,000 -1,080 Descending Chicago Center
08:32PM 41.1297 -88.5661 58° Northeast 298 343 9,200 -960 Descending Chicago Center
08:34PM 41.2039 -88.4783 42° Northeast 299 344 8,000 -1,080 Descending Chicago Center
08:35PM 41.2642 -88.4039 43° Northeast 298 343 7,000 -1,020 Descending Chicago Center
08:36PM 41.3222 -88.3317 43° Northeast 291 335 6,000 -540 Descending Chicago Center
08:37PM 41.3792 -88.2608 43° Northeast 284 327 6,000 -540 Level Chicago Center
08:38PM 41.4356 -88.1900 43° Northeast 279 321 5,000 -840 Descending Chicago Center
08:39PM 41.4919 -88.1211 42° Northeast 273 314 4,300 -540 Descending Chicago Center
08:40PM 41.5414 -88.0594 43° Northeast 254 292 4,000 -180 Descending Chicago Center
08:41PM 41.5672 -87.9872 64° Northeast 207 238 4,000  Level Chicago Center
08:42PM 41.6061 -87.9606 27° Northeast 201 231 4,000 -240 Level Chicago Center
08:43PM 41.6444 -87.9375 24° Northeast 180 207 3,600 -480 Descending Chicago Center
08:44PM 41.6422 -87.8936 94° East 167 192 3,000 -420 Descending Chicago Center
08:44PM 41.6333 -87.8667 114° Southeast 151 174 3,000  Level Chicago TRACON
08:45PM 41.6131 -87.8519 152° Southeast 157 181 3,000  Level Chicago Center
08:46PM 41.5697 -87.8658 193° South 184 212 3,000  Level Chicago Center
08:47PM 41.5894 -87.9344 291° West 185 213 3,000  Level Chicago Center
08:48PM 41.6358 -87.9319 North 172 198 3,000  Level Chicago Center
08:49PM 41.6733 -87.8939 37° Northeast 177 204 3,000 -240 Level Chicago Center
08:50PM 41.7047 -87.8536 44° Northeast 166 191 2,600 -540 Descending Chicago Center
08:51PM 41.7344 -87.8158 43° Northeast 157 181 1,900 -780 Descending Chicago Center
08:52PM 41.7653 -87.7783 42° Northeast 139 160 1,100 -540 Descending Chicago Center
08:53PM 41.7903 -87.7469 43° Northeast 136 157 900 -240 Descending Chicago Center